Time;durP1;ratioP1;P1;durP2;ratioP2;P2;SDS_P1;SDS_P2;PMS_P1;PMS_P2;Temp;Humidity;BMP_temperature;BMP_pressure;BME280_temperature;BME280_humidity;BME280_pressure;Samples;Min_cycle;Max_cycle;Signal;HPM_P1;HPM_P2
2022/04/07 00:01:32;;;;;;;;;;;;;;;;;;5125780;28;19916;-79
2022/04/07 00:03:59;;;;;;;;;;;;;;;;;;5124941;28;19955;-80
2022/04/07 00:06:24;;;;;;;;;;;;;;;;;;5123531;28;20441;-80
2022/04/07 00:08:50;;;;;;;;;;;;;;;;;;5124845;28;19971;-79
2022/04/07 00:11:15;;;;;;;;;;;;;;;;;;5122456;28;20312;-79
2022/04/07 00:13:40;;;;;;;;;;;;;;;;;;5121756;28;19922;-79
2022/04/07 00:16:06;;;;;;;;;;;;;;;;;;5102451;28;19924;-79
2022/04/07 00:18:32;;;;;;;;;;;;;;;;;;5101681;28;19920;-79
2022/04/07 00:20:57;;;;;;;;;;;;;;;;;;5101096;28;19916;-80
2022/04/07 00:23:22;;;;;;;;;;;;;;;;;;5101889;28;19916;-81
2022/04/07 00:25:48;;;;;;;;;;;;;;;;;;5102584;28;19916;-80
2022/04/07 00:28:13;;;;;;;;;;;;;;;;;;5102033;28;19924;-79
2022/04/07 00:30:39;;;;;;;;;;;;;;;;;;5101816;28;20293;-80
2022/04/07 00:33:07;;;;;;;;;;;;;;;;;;5100253;28;20007;-79
2022/04/07 00:35:33;;;;;;;;;;;;;;;;;;5101019;28;20270;-79
2022/04/07 00:37:58;;;;;;;;;;;;;;;;;;5100936;28;19923;-79
2022/04/07 00:40:23;;;;;;;;;;;;;;;;;;5101563;28;19927;-79
2022/04/07 00:42:50;;;;;;;;;;;;;;;;;;5099063;28;19916;-79
2022/04/07 00:45:16;;;;;;;;;;;;;;;;;;5099997;28;19951;-78
2022/04/07 00:47:42;;;;;;;;;;;;;;;;;;5099701;28;19920;-79
2022/04/07 00:50:08;;;;;;;;;;;;;;;;;;5137469;27;20006;-79
2022/04/07 00:52:34;;;;;;;;;;;;;;;;;;5138516;27;19937;-79
2022/04/07 00:55:01;;;;;;;;;;;;;;;;;;5138814;27;19919;-78
2022/04/07 00:57:26;;;;;;;;;;;;;;;;;;5140877;27;20014;-79
2022/04/07 00:59:51;;;;;;;;;;;;;;;;;;5141207;27;19920;-79
2022/04/07 01:02:17;;;;;;;;;;;;;;;;;;5141181;27;19916;-79
2022/04/07 01:04:42;;;;;;;;;;;;;;;;;;5141331;27;19922;-79
2022/04/07 01:07:07;;;;;;;;;;;;;;;;;;5141719;27;20274;-79
2022/04/07 01:09:33;;;;;;;;;;;;;;;;;;5140956;27;19915;-79
2022/04/07 01:11:58;;;;;;;;;;;;;;;;;;5144185;27;19915;-79
2022/04/07 01:14:24;;;;;;;;;;;;;;;;;;5145871;27;19968;-80
2022/04/07 01:16:49;;;;;;;;;;;;;;;;;;5146186;27;19930;-82
2022/04/07 01:19:15;;;;;;;;;;;;;;;;;;5147401;27;20286;-83
2022/04/07 01:21:41;;;;;;;;;;;;;;;;;;5145553;27;19922;-83
2022/04/07 01:24:10;;;;;;;;;;;;;;;;;;5145097;27;20010;-83
2022/04/07 01:26:37;;;;;;;;;;;;;;;;;;5146048;27;19916;-83
2022/04/07 01:29:03;;;;;;;;;;;;;;;;;;5146380;27;20377;-82
2022/04/07 01:31:29;;;;;;;;;;;;;;;;;;5143074;27;19981;-83
2022/04/07 01:33:55;;;;;;;;;;;;;;;;;;5144392;27;19916;-82
2022/04/07 01:36:21;;;;;;;;;;;;;;;;;;5143610;27;19915;-82
2022/04/07 01:38:47;;;;;;;;;;;;;;;;;;5141380;27;19939;-82
2022/04/07 01:41:12;;;;;;;;;;;;;;;;;;5142451;27;19916;-82
2022/04/07 01:43:38;;;;;;;;;;;;;;;;;;5141863;27;20376;-82
2022/04/07 01:46:04;;;;;;;;;;;;;;;;;;5136014;27;20006;-81
2022/04/07 01:48:30;;;;;;;;;;;;;;;;;;5122203;28;19963;-81
2022/04/07 01:50:55;;;;;;;;;;;;;;;;;;5119207;28;20396;-81
2022/04/07 01:53:21;;;;;;;;;;;;;;;;;;5122915;28;19915;-82
2022/04/07 01:55:47;;;;;;;;;;;;;;;;;;5124197;28;19919;-82
2022/04/07 01:58:16;;;;;;;;;;;;;;;;;;5127366;28;19937;-82
2022/04/07 02:00:41;;;;;;;;;;;;;;;;;;5129092;28;19942;-81
2022/04/07 02:03:09;;;;;;;;;;;;;;;;;;5126778;28;21408;-81
2022/04/07 02:05:35;;;;;;;;;;;;;;;;;;5125378;28;19995;-81
2022/04/07 02:08:00;;;;;;;;;;;;;;;;;;5124008;28;19959;-81
2022/04/07 02:10:28;;;;;;;;;;;;;;;;;;5125321;28;19916;-80
2022/04/07 02:12:54;;;;;;;;;;;;;;;;;;5123849;27;19916;-80
2022/04/07 02:15:19;;;;;;;;;;;;;;;;;;5126573;28;19984;-80
2022/04/07 02:17:44;;;;;;;;;;;;;;;;;;5145147;27;19916;-80
2022/04/07 02:20:10;;;;;;;;;;;;;;;;;;5146160;27;19939;-78
2022/04/07 02:22:35;;;;;;;;;;;;;;;;;;5128401;27;19919;-80
2022/04/07 02:25:02;;;;;;;;;;;;;;;;;;5102909;28;19973;-80
2022/04/07 02:27:37;;;;;;;;;;;;;;;;;;5105000;28;19920;-81
2022/04/07 02:30:07;;;;;;;;;;;;;;;;;;5102883;28;20407;-79
2022/04/07 02:32:32;;;;;;;;;;;;;;;;;;5101354;28;19973;-80
2022/04/07 02:34:57;;;;;;;;;;;;;;;;;;5101931;28;20373;-81
2022/04/07 02:37:25;;;;;;;;;;;;;;;;;;5098941;28;19912;-80
2022/04/07 02:39:50;;;;;;;;;;;;;;;;;;5082978;28;19920;-80
2022/04/07 02:42:15;;;;;;;;;;;;;;;;;;5100645;28;20377;-80
2022/04/07 02:44:41;;;;;;;;;;;;;;;;;;5100786;28;19920;-80
2022/04/07 02:47:06;;;;;;;;;;;;;;;;;;5100807;28;19916;-80
2022/04/07 02:49:32;;;;;;;;;;;;;;;;;;5103178;28;19920;-80
2022/04/07 02:52:00;;;;;;;;;;;;;;;;;;5119791;28;19922;-81
2022/04/07 02:54:27;;;;;;;;;;;;;;;;;;5118764;28;19916;-79
2022/04/07 02:56:52;;;;;;;;;;;;;;;;;;5118158;27;19929;-77
2022/04/07 02:59:18;;;;;;;;;;;;;;;;;;5114447;28;19919;-77
2022/04/07 03:01:43;;;;;;;;;;;;;;;;;;5113810;28;19958;-77
2022/04/07 03:04:09;;;;;;;;;;;;;;;;;;5113870;28;19919;-78
2022/04/07 03:06:34;;;;;;;;;;;;;;;;;;5115592;28;19923;-79
2022/04/07 03:09:00;;;;;;;;;;;;;;;;;;5115451;28;20381;-79
2022/04/07 03:11:25;;;;;;;;;;;;;;;;;;5115494;27;19915;-80
2022/04/07 03:13:50;;;;;;;;;;;;;;;;;;5113981;28;20281;-79
2022/04/07 03:16:16;;;;;;;;;;;;;;;;;;5095989;28;19916;-78
2022/04/07 03:18:41;;;;;;;;;;;;;;;;;;5098117;28;20010;-79
2022/04/07 03:21:06;;;;;;;;;;;;;;;;;;5100538;28;19938;-79
2022/04/07 03:23:32;;;;;;;;;;;;;;;;;;5101131;28;19916;-80
2022/04/07 03:25:59;;;;;;;;;;;;;;;;;;5099873;28;19916;-80
2022/04/07 03:28:24;;;;;;;;;;;;;;;;;;5099759;28;20018;-80
2022/04/07 03:30:49;;;;;;;;;;;;;;;;;;5102239;28;20357;-80
2022/04/07 03:33:16;;;;;;;;;;;;;;;;;;5101844;28;19923;-78
2022/04/07 03:35:42;;;;;;;;;;;;;;;;;;5104204;28;19965;-79
2022/04/07 03:38:07;;;;;;;;;;;;;;;;;;5104207;28;19985;-79
2022/04/07 03:40:34;;;;;;;;;;;;;;;;;;5105145;28;19970;-80
2022/04/07 03:43:00;;;;;;;;;;;;;;;;;;5102128;28;19916;-78
2022/04/07 03:45:25;;;;;;;;;;;;;;;;;;5100544;28;19969;-78
2022/04/07 03:47:50;;;;;;;;;;;;;;;;;;5101687;28;19920;-78
2022/04/07 03:50:16;;;;;;;;;;;;;;;;;;5082699;28;19916;-79
2022/04/07 03:52:41;;;;;;;;;;;;;;;;;;5099379;28;20297;-78
2022/04/07 03:55:06;;;;;;;;;;;;;;;;;;5098859;28;19927;-78
2022/04/07 03:57:32;;;;;;;;;;;;;;;;;;5098743;28;19927;-78
2022/04/07 03:59:57;;;;;;;;;;;;;;;;;;5099799;28;19923;-79
2022/04/07 04:02:22;;;;;;;;;;;;;;;;;;5100770;28;20018;-79
2022/04/07 04:04:48;;;;;;;;;;;;;;;;;;5099647;28;19923;-78
2022/04/07 04:07:13;;;;;;;;;;;;;;;;;;5100526;28;20289;-79
2022/04/07 04:09:39;;;;;;;;;;;;;;;;;;5100630;28;19916;-78
2022/04/07 04:12:04;;;;;;;;;;;;;;;;;;5098797;28;20293;-79
2022/04/07 04:14:30;;;;;;;;;;;;;;;;;;5099564;28;19974;-78
2022/04/07 04:16:55;;;;;;;;;;;;;;;;;;5099461;28;19916;-78
2022/04/07 04:19:20;;;;;;;;;;;;;;;;;;5098918;28;19916;-78
2022/04/07 04:21:45;;;;;;;;;;;;;;;;;;5099270;28;19920;-78
2022/04/07 04:24:11;;;;;;;;;;;;;;;;;;5098208;28;19920;-78
2022/04/07 04:26:36;;;;;;;;;;;;;;;;;;5097860;28;19991;-79
2022/04/07 04:29:02;;;;;;;;;;;;;;;;;;5097213;28;19959;-78
2022/04/07 04:31:27;;;;;;;;;;;;;;;;;;5099840;28;19916;-78
2022/04/07 04:33:53;;;;;;;;;;;;;;;;;;5099164;28;19916;-78
2022/04/07 04:36:19;;;;;;;;;;;;;;;;;;5098547;28;20031;-78
2022/04/07 04:38:45;;;;;;;;;;;;;;;;;;5098424;28;19963;-78
2022/04/07 04:41:10;;;;;;;;;;;;;;;;;;5096194;28;20320;-78
2022/04/07 04:43:35;;;;;;;;;;;;;;;;;;5099048;28;19927;-79
2022/04/07 04:46:01;;;;;;;;;;;;;;;;;;5099812;28;20548;-79
2022/04/07 04:48:27;;;;;;;;;;;;;;;;;;5097481;28;19965;-78
2022/04/07 04:50:52;;;;;;;;;;;;;;;;;;5097641;28;20377;-78
2022/04/07 04:53:17;;;;;;;;;;;;;;;;;;5096561;28;20015;-78
2022/04/07 04:55:42;;;;;;;;;;;;;;;;;;5096790;28;19920;-78
2022/04/07 04:58:08;;;;;;;;;;;;;;;;;;5097513;28;19969;-80
2022/04/07 05:00:33;;;;;;;;;;;;;;;;;;5096788;28;20392;-78
2022/04/07 05:02:58;;;;;;;;;;;;;;;;;;5099138;28;20012;-78
2022/04/07 05:05:24;;;;;;;;;;;;;;;;;;5097592;28;19923;-77
2022/04/07 05:07:49;;;;;;;;;;;;;;;;;;5096900;28;19977;-79
2022/04/07 05:10:15;;;;;;;;;;;;;;;;;;5099441;28;19916;-76
2022/04/07 05:12:40;;;;;;;;;;;;;;;;;;5095798;28;19923;-77
2022/04/07 05:15:07;;;;;;;;;;;;;;;;;;5094358;28;19949;-77
2022/04/07 05:17:32;;;;;;;;;;;;;;;;;;5095794;28;19920;-78
2022/04/07 05:19:57;;;;;;;;;;;;;;;;;;5111358;28;19923;-77
2022/04/07 05:22:23;;;;;;;;;;;;;;;;;;5126444;28;20014;-80
2022/04/07 05:24:48;;;;;;;;;;;;;;;;;;5124656;28;19916;-81
2022/04/07 05:27:15;;;;;;;;;;;;;;;;;;5121481;28;19967;-80
2022/04/07 05:29:40;;;;;;;;;;;;;;;;;;5119429;27;20358;-76
2022/04/07 05:32:05;;;;;;;;;;;;;;;;;;5115760;28;19922;-76
2022/04/07 05:34:32;;;;;;;;;;;;;;;;;;5115952;28;19920;-76
2022/04/07 05:36:57;;;;;;;;;;;;;;;;;;5114846;28;20010;-76
2022/04/07 05:39:23;;;;;;;;;;;;;;;;;;5114274;28;20356;-76
2022/04/07 05:41:48;;;;;;;;;;;;;;;;;;5115633;28;19919;-76
2022/04/07 05:44:13;;;;;;;;;;;;;;;;;;5113574;28;19916;-76
2022/04/07 05:46:39;;;;;;;;;;;;;;;;;;5115569;28;20277;-76
2022/04/07 05:49:04;;;;;;;;;;;;;;;;;;5115533;28;19926;-76
2022/04/07 05:51:29;;;;;;;;;;;;;;;;;;5115625;28;19923;-76
2022/04/07 05:53:55;;;;;;;;;;;;;;;;;;5114009;28;19915;-77
2022/04/07 05:56:20;;;;;;;;;;;;;;;;;;5115071;28;19927;-76
2022/04/07 05:58:46;;;;;;;;;;;;;;;;;;5114637;28;19930;-76
2022/04/07 06:01:11;;;;;;;;;;;;;;;;;;5115320;28;19919;-76
2022/04/07 06:03:37;;;;;;;;;;;;;;;;;;5115340;28;20250;-76
2022/04/07 06:06:02;;;;;;;;;;;;;;;;;;5115230;28;19916;-76
2022/04/07 06:08:28;;;;;;;;;;;;;;;;;;5115114;28;19965;-76
2022/04/07 06:10:53;;;;;;;;;;;;;;;;;;5115159;28;19916;-76
2022/04/07 06:13:19;;;;;;;;;;;;;;;;;;5115179;28;19954;-76
2022/04/07 06:15:44;;;;;;;;;;;;;;;;;;5114450;28;19915;-76
2022/04/07 06:18:10;;;;;;;;;;;;;;;;;;5115084;28;19919;-76
2022/04/07 06:20:35;;;;;;;;;;;;;;;;;;5114860;28;19922;-76
2022/04/07 06:23:00;;;;;;;;;;;;;;;;;;5115044;28;20399;-76
2022/04/07 06:25:26;;;;;;;;;;;;;;;;;;5114609;28;19939;-77
2022/04/07 06:27:52;;;;;;;;;;;;;;;;;;5115057;28;19942;-77
2022/04/07 06:30:20;;;;;;;;;;;;;;;;;;5115009;28;19951;-77
2022/04/07 06:32:47;;;;;;;;;;;;;;;;;;5096462;28;19916;-77
2022/04/07 06:35:13;;;;;;;;;;;;;;;;;;5096687;28;19958;-77
2022/04/07 06:37:45;;;;;;;;;;;;;;;;;;5112898;28;19916;-77
2022/04/07 06:40:11;;;;;;;;;;;;;;;;;;5113475;28;20036;-77
2022/04/07 06:42:37;;;;;;;;;;;;;;;;;;5113371;28;19929;-77
2022/04/07 06:45:03;;;;;;;;;;;;;;;;;;5113760;28;19922;-77
2022/04/07 06:47:28;;;;;;;;;;;;;;;;;;5114489;28;19919;-77
2022/04/07 06:49:53;;;;;;;;;;;;;;;;;;5114577;28;19922;-77
2022/04/07 06:52:19;;;;;;;;;;;;;;;;;;5113786;28;19923;-77
2022/04/07 06:54:45;;;;;;;;;;;;;;;;;;5114242;27;19919;-77
2022/04/07 06:57:11;;;;;;;;;;;;;;;;;;5114152;28;19968;-77
2022/04/07 06:59:36;;;;;;;;;;;;;;;;;;5114538;28;19923;-77
2022/04/07 07:02:01;;;;;;;;;;;;;;;;;;5114559;28;20506;-77
2022/04/07 07:04:27;;;;;;;;;;;;;;;;;;5114467;28;19919;-77
2022/04/07 07:06:52;;;;;;;;;;;;;;;;;;5112775;27;19955;-77
2022/04/07 07:09:17;;;;;;;;;;;;;;;;;;5114899;28;19927;-77
2022/04/07 07:11:43;;;;;;;;;;;;;;;;;;5114666;28;19920;-77
2022/04/07 07:14:08;;;;;;;;;;;;;;;;;;5110421;28;20029;-77
2022/04/07 07:16:33;;;;;;;;;;;;;;;;;;5094325;28;20037;-77
2022/04/07 07:18:59;;;;;;;;;;;;;;;;;;5094170;28;20397;-78
2022/04/07 07:21:24;;;;;;;;;;;;;;;;;;5094105;28;19958;-75
2022/04/07 07:23:49;;;;;;;;;;;;;;;;;;5093700;28;19920;-77
2022/04/07 07:26:15;;;;;;;;;;;;;;;;;;5094184;28;19962;-78
2022/04/07 07:28:40;;;;;;;;;;;;;;;;;;5091831;28;20010;-80
2022/04/07 07:31:05;;;;;;;;;;;;;;;;;;5092516;28;19916;-79
2022/04/07 07:33:30;;;;;;;;;;;;;;;;;;5093218;28;19967;-78
2022/04/07 07:35:56;;;;;;;;;;;;;;;;;;5093939;28;19916;-78
2022/04/07 07:38:22;;;;;;;;;;;;;;;;;;5092090;28;19920;-79
2022/04/07 07:40:48;;;;;;;;;;;;;;;;;;5094565;28;19923;-79
2022/04/07 07:43:13;;;;;;;;;;;;;;;;;;5094488;28;19916;-79
2022/04/07 07:45:39;;;;;;;;;;;;;;;;;;5115158;28;20292;-80
2022/04/07 07:48:04;;;;;;;;;;;;;;;;;;5117359;28;19920;-79
2022/04/07 07:50:29;;;;;;;;;;;;;;;;;;5120479;28;19922;-78
2022/04/07 07:52:55;;;;;;;;;;;;;;;;;;5115727;28;19916;-77
2022/04/07 07:55:20;;;;;;;;;;;;;;;;;;5114014;28;19973;-77
2022/04/07 07:57:45;;;;;;;;;;;;;;;;;;5114521;28;19920;-79
2022/04/07 08:00:12;;;;;;;;;;;;;;;;;;5119335;28;19916;-80
2022/04/07 08:02:38;;;;;;;;;;;;;;;;;;5119511;28;19915;-80
2022/04/07 08:05:04;;;;;;;;;;;;;;;;;;5122933;28;20284;-80
2022/04/07 08:07:29;;;;;;;;;;;;;;;;;;5123927;28;19926;-80
2022/04/07 08:09:59;;;;;;;;;;;;;;;;;;5123243;28;19916;-80
2022/04/07 08:12:24;;;;;;;;;;;;;;;;;;5121953;28;19955;-79
2022/04/07 08:14:49;;;;;;;;;;;;;;;;;;5108242;28;19927;-79
2022/04/07 08:17:15;;;;;;;;;;;;;;;;;;5099615;28;20416;-78
2022/04/07 08:19:40;;;;;;;;;;;;;;;;;;5098749;28;19912;-79
2022/04/07 08:22:06;;;;;;;;;;;;;;;;;;5100496;28;19964;-76
2022/04/07 08:24:31;;;;;;;;;;;;;;;;;;5110944;28;19916;-78
2022/04/07 08:26:57;;;;;;;;;;;;;;;;;;5120631;28;20337;-78
2022/04/07 08:29:22;;;;;;;;;;;;;;;;;;5117943;27;20026;-78
2022/04/07 08:31:51;;;;;;;;;;;;;;;;;;5116582;28;19915;-75
2022/04/07 08:34:17;;;;;;;;;;;;;;;;;;5116877;28;19915;-75
2022/04/07 08:36:42;;;;;;;;;;;;;;;;;;5117587;28;19923;-77
2022/04/07 08:39:08;;;;;;;;;;;;;;;;;;5118317;28;20014;-77
2022/04/07 08:41:34;;;;;;;;;;;;;;;;;;5118351;28;19929;-77
2022/04/07 08:43:59;;;;;;;;;;;;;;;;;;5116348;28;19923;-77
2022/04/07 08:46:25;;;;;;;;;;;;;;;;;;5118536;28;19915;-77
2022/04/07 08:48:52;;;;;;;;;;;;;;;;;;5117928;28;20369;-77
2022/04/07 08:51:19;;;;;;;;;;;;;;;;;;5116665;28;19923;-76
2022/04/07 08:53:45;;;;;;;;;;;;;;;;;;5117638;28;19916;-76
2022/04/07 08:56:11;;;;;;;;;;;;;;;;;;5117793;27;20398;-76
2022/04/07 08:58:37;;;;;;;;;;;;;;;;;;5117865;28;20404;-77
2022/04/07 09:01:02;;;;;;;;;;;;;;;;;;5121095;27;19920;-78
2022/04/07 09:03:28;;;;;;;;;;;;;;;;;;5118674;28;19955;-77
2022/04/07 09:05:54;;;;;;;;;;;;;;;;;;5119075;28;19930;-80
2022/04/07 09:08:19;;;;;;;;;;;;;;;;;;5120002;27;19920;-76
2022/04/07 09:10:52;;;;;;;;;;;;;;;;;;5117407;28;20430;-75
2022/04/07 09:13:18;;;;;;;;;;;;;;;;;;5115762;28;19954;-75
2022/04/07 09:15:45;;;;;;;;;;;;;;;;;;5116857;28;19919;-76
2022/04/07 09:18:10;;;;;;;;;;;;;;;;;;5117121;28;19915;-76
2022/04/07 09:20:41;;;;;;;;;;;;;;;;;;5118774;28;19923;-75
2022/04/07 09:23:10;;;;;;;;;;;;;;;;;;5117841;28;19916;-75
2022/04/07 09:25:35;;;;;;;;;;;;;;;;;;5119544;28;19923;-74
2022/04/07 09:28:01;;;;;;;;;;;;;;;;;;5118618;28;19920;-76
2022/04/07 09:30:35;;;;;;;;;;;;;;;;;;5123270;28;19915;-78
2022/04/07 09:33:02;;;;;;;;;;;;;;;;;;5120119;27;19916;-78
2022/04/07 09:35:27;;;;;;;;;;;;;;;;;;5118434;28;19912;-78
2022/04/07 09:38:00;;;;;;;;;;;;;;;;;;5117639;28;19916;-78
2022/04/07 09:40:25;;;;;;;;;;;;;;;;;;5119638;28;20022;-79
2022/04/07 09:42:56;;;;;;;;;;;;;;;;;;5117588;28;19955;-78
2022/04/07 09:45:21;;;;;;;;;;;;;;;;;;5099128;28;20006;-77
2022/04/07 09:47:49;;;;;;;;;;;;;;;;;;5119403;28;20469;-78
2022/04/07 09:50:22;;;;;;;;;;;;;;;;;;5120079;28;19970;-79
2022/04/07 09:52:56;;;;;;;;;;;;;;;;;;5118825;28;19950;-77
2022/04/07 09:55:23;;;;;;;;;;;;;;;;;;5118931;28;19923;-77
2022/04/07 09:57:48;;;;;;;;;;;;;;;;;;5116476;27;20538;-77
2022/04/07 10:00:14;;;;;;;;;;;;;;;;;;5114996;28;20068;-77
2022/04/07 10:02:40;;;;;;;;;;;;;;;;;;5121484;28;19938;-80
2022/04/07 10:05:07;;;;;;;;;;;;;;;;;;5124181;28;20010;-80
2022/04/07 10:07:33;;;;;;;;;;;;;;;;;;5119685;28;20369;-78
2022/04/07 10:10:01;;;;;;;;;;;;;;;;;;5117578;28;19919;-80
2022/04/07 10:12:27;;;;;;;;;;;;;;;;;;5120366;28;19968;-79
2022/04/07 10:14:53;;;;;;;;;;;;;;;;;;5124347;28;19919;-83
2022/04/07 10:17:19;;;;;;;;;;;;;;;;;;5122292;28;20018;-80
2022/04/07 10:19:44;;;;;;;;;;;;;;;;;;5126331;28;20382;-79
2022/04/07 10:22:28;;;;;;;;;;;;;;;;;;5124881;28;19916;-83
2022/04/07 10:24:55;;;;;;;;;;;;;;;;;;5122909;28;19919;-79
2022/04/07 10:27:23;;;;;;;;;;;;;;;;;;5121886;28;19945;-82
2022/04/07 10:30:21;;;;;;;;;;;;;;;;;;5123615;28;20369;-84
2022/04/07 10:32:47;;;;;;;;;;;;;;;;;;5096601;28;19916;-78
2022/04/07 10:35:37;;;;;;;;;;;;;;;;;;5120449;28;20013;-82
2022/04/07 10:38:04;;;;;;;;;;;;;;;;;;5124588;28;19919;-80
2022/04/07 10:40:40;;;;;;;;;;;;;;;;;;5123902;28;19923;-78
2022/04/07 10:43:13;;;;;;;;;;;;;;;;;;5122933;28;19994;-81
2022/04/07 10:45:39;;;;;;;;;;;;;;;;;;5102584;28;19951;-86
2022/04/07 10:48:17;;;;;;;;;;;;;;;;;;5080717;28;19920;-78
2022/04/07 10:50:49;;;;;;;;;;;;;;;;;;5099921;28;19927;-82
2022/04/07 10:53:21;;;;;;;;;;;;;;;;;;5098262;28;19912;-81
2022/04/07 10:56:00;;;;;;;;;;;;;;;;;;5097927;28;19928;-82
2022/04/07 10:58:45;;;;;;;;;;;;;;;;;;5096857;28;19916;-81
2022/04/07 11:01:33;;;;;;;;;;;;;;;;;;5099383;28;19942;-81
2022/04/07 11:04:20;;;;;;;;;;;;;;;;;;5100048;28;19922;-79
2022/04/07 11:07:04;;;;;;;;;;;;;;;;;;5097833;28;19924;-80
2022/04/07 11:09:49;;;;;;;;;;;;;;;;;;5095924;28;19954;-76
2022/04/07 11:12:24;;;;;;;;;;;;;;;;;;5100836;28;19916;-81
2022/04/07 11:14:56;;;;;;;;;;;;;;;;;;5116183;28;19920;-78
2022/04/07 11:17:33;;;;;;;;;;;;;;;;;;5122032;28;20002;-78
2022/04/07 11:20:03;;;;;;;;;;;;;;;;;;5120602;28;20420;-81
2022/04/07 11:22:47;;;;;;;;;;;;;;;;;;5125113;28;19923;-80
2022/04/07 11:25:14;;;;;;;;;;;;;;;;;;5123396;28;19916;-76
2022/04/07 11:27:42;;;;;;;;;;;;;;;;;;5124051;28;19920;-83
2022/04/07 11:30:11;;;;;;;;;;;;;;;;;;5124112;28;19916;-83
2022/04/07 11:32:38;;;;;;;;;;;;;;;;;;5125351;28;19954;-81
2022/04/07 11:35:14;;;;;;;;;;;;;;;;;;5125738;28;19964;-82
2022/04/07 11:37:42;;;;;;;;;;;;;;;;;;5126743;28;19915;-82
2022/04/07 11:40:09;;;;;;;;;;;;;;;;;;5129332;28;19916;-82
2022/04/07 11:42:34;;;;;;;;;;;;;;;;;;5131019;28;19916;-81
2022/04/07 11:45:00;;;;;;;;;;;;;;;;;;5130721;28;19916;-81
2022/04/07 11:47:28;;;;;;;;;;;;;;;;;;5130796;28;19963;-82
2022/04/07 11:49:54;;;;;;;;;;;;;;;;;;5131694;28;19915;-82
2022/04/07 11:52:33;;;;;;;;;;;;;;;;;;5131084;27;20003;-81
2022/04/07 11:54:59;;;;;;;;;;;;;;;;;;5132016;28;19919;-81
2022/04/07 11:57:25;;;;;;;;;;;;;;;;;;5131986;28;19916;-81
2022/04/07 11:59:54;;;;;;;;;;;;;;;;;;5132343;28;19926;-80
2022/04/07 12:02:21;;;;;;;;;;;;;;;;;;5131967;28;19975;-80
2022/04/07 12:04:47;;;;;;;;;;;;;;;;;;5132098;28;19915;-80
2022/04/07 12:07:13;;;;;;;;;;;;;;;;;;5132627;28;19942;-81
2022/04/07 12:09:38;;;;;;;;;;;;;;;;;;5132076;28;19924;-81
2022/04/07 12:12:04;;;;;;;;;;;;;;;;;;5130733;28;19916;-82
2022/04/07 12:14:30;;;;;;;;;;;;;;;;;;5127341;28;19961;-82
2022/04/07 12:16:56;;;;;;;;;;;;;;;;;;5110974;28;19916;-82
2022/04/07 12:19:21;;;;;;;;;;;;;;;;;;5131486;28;19926;-82
2022/04/07 12:21:51;;;;;;;;;;;;;;;;;;5132024;28;19915;-83
2022/04/07 12:24:17;;;;;;;;;;;;;;;;;;5129533;28;19915;-83
2022/04/07 12:26:43;;;;;;;;;;;;;;;;;;5133452;27;19927;-83
2022/04/07 12:29:13;;;;;;;;;;;;;;;;;;5133987;28;19919;-82
2022/04/07 12:31:38;;;;;;;;;;;;;;;;;;5134925;28;20357;-83
2022/04/07 12:34:08;;;;;;;;;;;;;;;;;;5133267;28;19925;-82
2022/04/07 12:36:35;;;;;;;;;;;;;;;;;;5109017;28;19994;-83
2022/04/07 12:39:13;;;;;;;;;;;;;;;;;;5125287;28;19966;-83
2022/04/07 12:41:40;;;;;;;;;;;;;;;;;;5124484;28;19915;-83
2022/04/07 12:44:06;;;;;;;;;;;;;;;;;;5124414;28;19912;-83
2022/04/07 12:46:48;;;;;;;;;;;;;;;;;;5122895;28;19936;-83
2022/04/07 12:49:14;;;;;;;;;;;;;;;;;;5132020;27;19919;-82
2022/04/07 12:51:40;;;;;;;;;;;;;;;;;;5143632;27;19916;-82
2022/04/07 12:54:06;;;;;;;;;;;;;;;;;;5143796;27;19911;-82
2022/04/07 12:56:32;;;;;;;;;;;;;;;;;;5143487;27;20422;-82
2022/04/07 12:59:04;;;;;;;;;;;;;;;;;;5144765;27;19915;-82
2022/04/07 13:01:30;;;;;;;;;;;;;;;;;;5144823;27;19915;-82
2022/04/07 13:03:56;;;;;;;;;;;;;;;;;;5144938;27;19923;-82
2022/04/07 13:06:25;;;;;;;;;;;;;;;;;;5146083;27;19926;-82
2022/04/07 13:08:50;;;;;;;;;;;;;;;;;;5113647;27;19924;-82
2022/04/07 13:11:48;;;;;;;;;;;;;;;;;;5105133;28;19982;-78
2022/04/07 13:14:14;;;;;;;;;;;;;;;;;;5066082;28;19916;-79
2022/04/07 13:16:40;;;;;;;;;;;;;;;;;;5104903;28;20434;-79
2022/04/07 13:19:08;;;;;;;;;;;;;;;;;;5105625;28;19966;-80
2022/04/07 13:21:33;;;;;;;;;;;;;;;;;;5124584;28;19916;-78
2022/04/07 13:23:58;;;;;;;;;;;;;;;;;;5122111;28;20293;-78
2022/04/07 13:26:24;;;;;;;;;;;;;;;;;;5119584;28;19927;-78
2022/04/07 13:28:50;;;;;;;;;;;;;;;;;;5118401;28;19920;-78
2022/04/07 13:31:18;;;;;;;;;;;;;;;;;;5120384;28;19923;-79
2022/04/07 13:33:44;;;;;;;;;;;;;;;;;;5121285;28;19916;-78
2022/04/07 13:36:10;;;;;;;;;;;;;;;;;;5121452;28;19915;-78
2022/04/07 13:38:35;;;;;;;;;;;;;;;;;;5121716;28;20257;-78
2022/04/07 13:41:01;;;;;;;;;;;;;;;;;;5120236;28;19919;-81
2022/04/07 13:43:27;;;;;;;;;;;;;;;;;;5122814;27;19945;-81
2022/04/07 13:45:52;;;;;;;;;;;;;;;;;;5121896;27;19920;-80
2022/04/07 13:48:20;;;;;;;;;;;;;;;;;;5122684;28;19920;-80
2022/04/07 13:50:45;;;;;;;;;;;;;;;;;;5122751;28;20373;-77
2022/04/07 13:53:10;;;;;;;;;;;;;;;;;;5123686;28;19916;-76
2022/04/07 13:55:36;;;;;;;;;;;;;;;;;;5123287;28;19934;-77
2022/04/07 13:58:01;;;;;;;;;;;;;;;;;;5123155;28;19923;-79
2022/04/07 14:00:27;;;;;;;;;;;;;;;;;;5122903;28;19957;-79
2022/04/07 14:02:52;;;;;;;;;;;;;;;;;;5124850;28;19926;-79
2022/04/07 14:05:18;;;;;;;;;;;;;;;;;;5122459;28;20436;-78
2022/04/07 14:07:43;;;;;;;;;;;;;;;;;;5121010;28;20396;-78
2022/04/07 14:10:10;;;;;;;;;;;;;;;;;;5119444;28;19923;-78
2022/04/07 14:12:36;;;;;;;;;;;;;;;;;;5120849;28;19915;-78
2022/04/07 14:15:01;;;;;;;;;;;;;;;;;;5120390;28;19960;-78
2022/04/07 14:17:26;;;;;;;;;;;;;;;;;;5122146;28;19916;-78
2022/04/07 14:19:52;;;;;;;;;;;;;;;;;;5123656;28;19920;-79
2022/04/07 14:22:17;;;;;;;;;;;;;;;;;;5123068;27;19916;-78
2022/04/07 14:24:43;;;;;;;;;;;;;;;;;;5123581;28;19920;-79
2022/04/07 14:27:08;;;;;;;;;;;;;;;;;;5123035;28;19915;-77
2022/04/07 14:29:33;;;;;;;;;;;;;;;;;;5119999;28;19919;-78
2022/04/07 14:31:59;;;;;;;;;;;;;;;;;;5121863;27;19923;-79
2022/04/07 14:34:24;;;;;;;;;;;;;;;;;;5124205;28;19915;-79
2022/04/07 14:36:50;;;;;;;;;;;;;;;;;;5124207;28;19923;-79
2022/04/07 14:39:15;;;;;;;;;;;;;;;;;;5123134;28;19923;-79
2022/04/07 14:41:40;;;;;;;;;;;;;;;;;;5125200;28;19923;-79
2022/04/07 14:44:09;;;;;;;;;;;;;;;;;;5119439;28;19936;-79
2022/04/07 14:46:34;;;;;;;;;;;;;;;;;;5122180;28;19916;-78
2022/04/07 14:49:00;;;;;;;;;;;;;;;;;;5121793;28;19920;-78
2022/04/07 14:51:28;;;;;;;;;;;;;;;;;;5122858;28;19916;-78
2022/04/07 14:53:53;;;;;;;;;;;;;;;;;;5121377;28;19926;-78
2022/04/07 14:56:18;;;;;;;;;;;;;;;;;;5122050;28;19998;-78
2022/04/07 14:58:45;;;;;;;;;;;;;;;;;;5120802;28;20006;-78
2022/04/07 15:01:10;;;;;;;;;;;;;;;;;;5122364;27;19916;-78
2022/04/07 15:03:35;;;;;;;;;;;;;;;;;;5124043;28;19923;-78
2022/04/07 15:06:01;;;;;;;;;;;;;;;;;;5124114;28;19915;-78
2022/04/07 15:08:26;;;;;;;;;;;;;;;;;;5124170;28;20019;-78
2022/04/07 15:10:52;;;;;;;;;;;;;;;;;;5122033;27;20253;-78
2022/04/07 15:13:17;;;;;;;;;;;;;;;;;;5123819;27;19916;-78
2022/04/07 15:15:43;;;;;;;;;;;;;;;;;;5122239;28;19915;-78
2022/04/07 15:18:08;;;;;;;;;;;;;;;;;;5126255;28;19969;-78
2022/04/07 15:20:34;;;;;;;;;;;;;;;;;;5126217;28;19915;-78
2022/04/07 15:23:00;;;;;;;;;;;;;;;;;;5125261;28;19916;-78
2022/04/07 15:25:25;;;;;;;;;;;;;;;;;;5126290;28;19916;-78
2022/04/07 15:27:50;;;;;;;;;;;;;;;;;;5125605;28;19935;-78
2022/04/07 15:30:16;;;;;;;;;;;;;;;;;;5128846;28;19912;-78
2022/04/07 15:32:42;;;;;;;;;;;;;;;;;;5123785;28;20365;-78
2022/04/07 15:35:08;;;;;;;;;;;;;;;;;;5124431;28;19916;-78
2022/04/07 15:37:33;;;;;;;;;;;;;;;;;;5125654;28;19915;-78
2022/04/07 15:40:00;;;;;;;;;;;;;;;;;;5116796;28;19922;-79
2022/04/07 15:42:28;;;;;;;;;;;;;;;;;;5116442;28;19916;-78
2022/04/07 15:44:54;;;;;;;;;;;;;;;;;;5118266;28;19991;-79
2022/04/07 15:47:19;;;;;;;;;;;;;;;;;;5117639;27;19916;-78
2022/04/07 15:49:44;;;;;;;;;;;;;;;;;;5115540;28;19920;-79
2022/04/07 15:52:11;;;;;;;;;;;;;;;;;;5106451;28;19923;-79
2022/04/07 15:54:37;;;;;;;;;;;;;;;;;;5100997;28;20035;-79
2022/04/07 15:57:02;;;;;;;;;;;;;;;;;;5097198;28;19955;-77
2022/04/07 15:59:27;;;;;;;;;;;;;;;;;;5106006;28;19922;-79
2022/04/07 16:01:53;;;;;;;;;;;;;;;;;;5117629;28;19951;-79
2022/04/07 16:04:18;;;;;;;;;;;;;;;;;;5119567;28;19941;-76
2022/04/07 16:06:43;;;;;;;;;;;;;;;;;;5122941;28;19916;-78
2022/04/07 16:09:09;;;;;;;;;;;;;;;;;;5124724;28;19926;-80
2022/04/07 16:11:34;;;;;;;;;;;;;;;;;;5126436;28;19915;-80
2022/04/07 16:14:00;;;;;;;;;;;;;;;;;;5125222;28;19915;-77
2022/04/07 16:16:25;;;;;;;;;;;;;;;;;;5126406;28;19946;-79
2022/04/07 16:18:50;;;;;;;;;;;;;;;;;;5123597;28;19956;-79
2022/04/07 16:21:16;;;;;;;;;;;;;;;;;;5121654;28;19922;-79
2022/04/07 16:23:41;;;;;;;;;;;;;;;;;;5122768;27;19979;-78
2022/04/07 16:26:07;;;;;;;;;;;;;;;;;;5120692;28;19916;-79
2022/04/07 16:28:33;;;;;;;;;;;;;;;;;;5123934;28;19924;-78
2022/04/07 16:31:02;;;;;;;;;;;;;;;;;;5117501;28;19969;-76
2022/04/07 16:33:28;;;;;;;;;;;;;;;;;;5118152;28;19978;-79
2022/04/07 16:35:54;;;;;;;;;;;;;;;;;;5119121;28;19916;-78
2022/04/07 16:38:19;;;;;;;;;;;;;;;;;;5117986;27;20350;-78
2022/04/07 16:40:45;;;;;;;;;;;;;;;;;;5118419;27;19919;-78
2022/04/07 16:43:10;;;;;;;;;;;;;;;;;;5119119;28;19915;-80